Latest Weather Observations for Cobar

IDN60801

Issued at 11:02 pm EST Monday 29 May 2017 (issued every 30 minutes, with the page automatically refreshed every 10 minutes)

About weather observations | Map of weather stations | Latest weather observations for NSW | Other Formats
Station Details ID: 048027 Name: COBAR MO Lat: -31.48 Lon: 145.83 Height: 260.0 m
Data from the previous 72 hours. | See also: Recent months at Cobar
Date/Time
EST
Temp
°C
App
Temp
°C
Dew
Point
°C
Rel
Hum
%
Delta-T
°C
Wind Press
QNH
hPa
Press
MSL
hPa
Rain since
9am
mm
Dir  Spd
km/h
Gust
km/h
Spd
kts
Gust
kts
29/11:00pm 8.3 4.9 1.7 63 2.7 SSE 9 11 5 6 1025.1 1024.9 0.0
29/10:30pm 7.9 4.4 1.5 64 2.6 SSE 9 11 5 6 1025.3 1025.1 0.0
29/10:00pm 8.4 5.0 1.6 62 2.8 SSE 9 11 5 6 1025.3 1025.1 0.0
29/09:30pm 8.4 5.3 1.6 62 2.8 SSE 7 9 4 5 1025.2 1025.0 0.0
29/09:00pm 9.4 6.3 1.6 58 3.3 S 7 9 4 5 1025.2 1025.0 0.0
29/08:30pm 8.4 5.4 1.1 60 3.0 S 6 7 3 4 1025.0 1024.7 0.0
29/08:00pm 8.9 5.9 1.8 61 3.0 SSE 7 7 4 4 1024.8 1024.5 0.0
29/07:30pm 9.8 6.8 1.7 57 3.4 S 7 9 4 5 1024.4 1024.1 0.0
29/07:00pm 9.9 6.9 1.8 57 3.4 S 7 7 4 4 1024.0 1023.8 0.0
29/06:30pm 10.3 7.3 1.7 55 3.7 SW 7 9 4 5 1023.7 1023.5 0.0
29/06:00pm 10.1 7.0 1.2 54 3.7 SW 7 9 4 5 1023.2 1023.0 0.0
29/05:30pm 11.0 7.5 1.5 52 4.1 SW 9 11 5 6 1023.0 1022.8 0.0
29/05:00pm 12.6 9.2 1.6 47 4.8 WSW 9 11 5 6 1022.8 1022.6 0.0
29/04:30pm 13.4 9.5 1.4 44 5.2 SW 11 15 6 8 1022.6 1022.4 0.0
29/04:00pm 13.8 9.9 1.1 42 5.5 SW 11 15 6 8 1022.5 1022.3 0.0
29/03:30pm 14.1 9.5 1.7 43 5.5 WSW 15 20 8 11 1022.6 1022.4 0.0
29/03:00pm 14.4 9.7 0.6 39 5.9 SW 15 20 8 11 1022.4 1022.2 0.0
29/02:30pm 14.4 10.1 1.3 41 5.7 SW 13 24 7 13 1022.4 1022.2 0.0
29/02:00pm 13.6 9.4 1.9 45 5.1 S 13 20 7 11 1022.4 1022.2 0.0
29/01:30pm 14.5 11.0 3.3 47 5.1 SSW 11 19 6 10 1022.6 1022.4 0.0
29/01:00pm 13.7 9.4 3.2 49 4.7 SW 15 24 8 13 1022.9 1022.7 0.0
29/12:30pm 13.3 9.9 4.2 54 4.2 SW 11 19 6 10 1023.2 1023.0 0.0
29/12:00pm 12.7 9.0 4.4 57 3.8 SSW 13 20 7 11 1023.5 1023.3 0.0
29/11:30am 11.9 7.7 3.9 58 3.6 SSW 15 20 8 11 1023.8 1023.6 0.0
29/11:00am 11.7 8.0 4.4 61 3.3 S 13 19 7 10 1023.9 1023.7 0.0
29/10:30am 10.9 8.3 6.3 73 2.2 SW 9 15 5 8 1024.0 1023.8 0.0
29/10:00am 9.9 7.3 6.1 77 1.8 SSW 9 11 5 6 1024.0 1023.8 0.0
29/09:43am 9.6 7.1 6.5 81 1.5 SSW 9 15 5 8 1023.9 1023.7 0.0
29/09:30am 9.4 6.5 6.7 83 1.3 SW 11 15 6 8 1023.8 1023.6 0.0
29/09:00am 8.5 5.6 6.3 86 1.0 SW 11 15 6 8 1023.5 1023.3 0.0
29/08:30am 8.5 5.1 6.1 85 1.1 SW 13 19 7 10 1023.1 1022.9 0.0
29/08:26am 8.5 5.5 6.1 85 1.1 SW 11 19 6 10 1023.0 1022.8 0.0
29/08:00am 7.6 4.9 5.6 87 0.9 SW 9 11 5 6 1022.7 1022.5 0.0
29/07:30am 6.0 3.1 4.5 90 0.7 SW 9 11 5 6 1022.2 1022.0 0.0
29/07:00am 5.7 2.7 3.9 88 0.8 WSW 9 9 5 5 1021.9 1021.7 0.0
29/06:30am 5.3 2.1 3.3 87 0.8 SW 9 9 5 5 1021.5 1021.2 0.0
29/06:00am 5.5 2.7 3.2 85 1.0 WSW 7 9 4 5 1021.1 1020.8 0.0
29/05:30am 5.6 2.5 3.4 86 0.9 WSW 9 11 5 6 1020.7 1020.4 0.0
29/05:00am 5.3 2.6 2.7 83 1.1 SW 6 7 3 4 1020.5 1020.2 0.0
29/04:30am 5.8 2.9 2.6 80 1.3 WSW 7 7 4 4 1020.1 1019.9 0.0
29/04:00am 6.2 2.9 2.5 77 1.5 WSW 9 11 5 6 1019.9 1019.7 0.0
29/03:30am 6.7 3.0 2.6 75 1.7 WSW 11 13 6 7 1019.7 1019.5 0.0
29/03:00am 7.1 3.4 2.6 73 1.9 SW 11 13 6 7 1019.7 1019.5 0.0
29/02:30am 7.6 4.0 2.7 71 2.1 SW 11 13 6 7 1019.6 1019.4 0.0
29/02:00am 8.3 4.7 2.8 68 2.4 WSW 11 15 6 8 1019.5 1019.3 0.0
29/01:30am 9.4 5.4 2.7 63 2.9 W 13 17 7 9 1019.2 1019.0 0.0
29/01:00am 9.6 5.6 2.7 62 3.0 W 13 15 7 8 1019.0 1018.8 0.0
29/12:30am 9.4 5.3 2.5 62 3.0 W 13 15 7 8 1018.9 1018.7 0.0
29/12:00am 9.3 5.2 2.4 62 3.0 WSW 13 17 7 9 1018.8 1018.6 0.0
 
Date/Time
EST
Temp
°C
App
Temp
°C
Dew
Point
°C
Rel
Hum
%
Delta-T
°C
Wind Press
QNH
hPa
Press
MSL
hPa
Rain since
9am
mm
Dir  Spd
km/h
Gust
km/h
Spd
kts
Gust
kts
28/11:30pm 9.1 5.1 2.9 65 2.7 WSW 13 15 7 8 1018.8 1018.6 0.0
28/11:00pm 10.0 6.5 3.5 64 2.9 W 11 15 6 8 1019.0 1018.8 0.0
28/10:30pm 8.4 5.2 3.1 69 2.3 W 9 11 5 6 1018.9 1018.7 0.0
28/10:00pm 9.6 6.4 2.9 63 2.9 W 9 11 5 6 1018.8 1018.6 0.0
28/09:30pm 10.1 6.5 3.2 62 3.0 WSW 11 13 6 7 1018.8 1018.6 0.0
28/09:00pm 10.9 7.8 3.5 60 3.3 W 9 11 5 6 1018.6 1018.4 0.0
28/08:30pm 11.4 7.9 3.7 59 3.5 W 11 13 6 7 1018.3 1018.0 0.0
28/08:00pm 11.4 8.0 3.9 60 3.4 WSW 11 13 6 7 1018.0 1017.7 0.0
28/07:30pm 12.5 9.1 4.2 57 3.8 W 11 13 6 7 1017.6 1017.3 0.0
28/07:00pm 12.4 9.4 4.1 57 3.8 WSW 9 11 5 6 1017.2 1016.9 0.0
28/06:30pm 13.4 10.1 4.3 54 4.2 WSW 11 15 6 8 1016.7 1016.4 0.0
28/06:00pm 14.3 10.6 4.6 52 4.6 WSW 13 17 7 9 1016.1 1015.9 0.0
28/05:30pm 15.1 10.7 4.5 49 5.0 W 17 20 9 11 1015.6 1015.4 0.0
28/05:00pm 16.4 11.5 4.1 44 5.8 W 19 32 10 17 1015.1 1014.8 0.0
28/04:30pm 17.2 12.8 4.9 44 5.9 W 17 28 9 15 1014.6 1014.3 0.0
28/04:00pm 17.8 13.0 5.7 45 6.0 W 20 30 11 16 1014.5 1014.2 0.0
28/03:30pm 18.3 13.5 5.5 43 6.3 W 20 30 11 16 1014.4 1014.1 0.0
28/03:00pm 18.7 13.9 5.5 42 6.5 W 20 33 11 18 1014.2 1013.9 0.0
28/02:30pm 19.1 15.1 6.6 44 6.3 W 17 24 9 13 1014.1 1013.8 0.0
28/02:00pm 18.6 14.1 6.1 44 6.3 W 19 28 10 15 1014.2 1013.9 0.0
28/01:30pm 18.5 13.8 6.0 44 6.2 WNW 20 32 11 17 1014.4 1014.1 0.0
28/01:00pm 18.3 13.4 6.8 47 5.8 WSW 22 30 12 16 1014.5 1014.2 0.0
28/12:30pm 18.2 13.8 6.4 46 5.9 W 19 28 10 15 1014.8 1014.5 0.0
28/12:00pm 18.0 13.7 6.8 48 5.7 WNW 19 26 10 14 1015.2 1014.9 0.0
28/11:30am 18.2 14.3 7.0 48 5.7 W 17 28 9 15 1015.4 1015.2 0.0
28/11:00am 17.6 14.0 6.8 49 5.4 W 15 22 8 12 1015.6 1015.4 0.0
28/10:30am 16.9 14.0 6.7 51 5.1 W 11 17 6 9 1015.8 1015.6 0.0
28/10:00am 15.6 11.8 5.8 52 4.8 W 15 22 8 12 1015.8 1015.6 0.0
28/09:30am 15.1 11.7 5.9 54 4.5 WNW 13 19 7 10 1015.5 1015.3 0.0
28/09:00am 14.6 11.3 6.4 58 4.0 NW 13 22 7 12 1015.5 1015.3 0.0
28/08:30am 12.9 10.0 6.7 66 3.0 NW 11 15 6 8 1015.3 1015.1 0.0
28/08:00am 9.8 6.9 6.3 79 1.6 NNW 11 13 6 7 1015.0 1014.7 0.0
28/07:30am 8.6 5.5 5.5 81 1.4 N 11 13 6 7 1014.7 1014.4 0.0
28/07:00am 8.7 5.2 5.4 80 1.5 N 13 17 7 9 1014.2 1013.9 0.0
28/06:30am 9.2 5.4 5.6 78 1.7 N 15 19 8 10 1014.0 1013.7 0.0
28/06:00am 9.3 5.8 5.5 77 1.7 N 13 15 7 8 1014.0 1013.7 0.0
28/05:30am 9.8 6.3 5.6 75 1.9 N 13 17 7 9 1014.0 1013.7 0.0
28/05:00am 9.5 6.0 5.5 76 1.8 NNE 13 17 7 9 1014.0 1013.7 0.0
28/04:30am 9.1 5.9 5.3 77 1.7 N 11 13 6 7 1014.1 1013.8 0.0
28/04:00am 9.3 6.6 5.5 77 1.7 N 9 13 5 7 1014.3 1014.0 0.0
28/03:30am 9.4 6.3 5.6 77 1.8 NNE 11 13 6 7 1014.5 1014.2 0.0
28/03:00am 10.0 6.9 5.4 73 2.1 NNE 11 13 6 7 1014.6 1014.3 0.0
28/02:30am 10.5 7.3 5.3 70 2.4 NNE 11 13 6 7 1014.8 1014.5 0.0
28/02:00am 12.0 8.9 5.4 64 3.1 N 11 13 6 7 1015.1 1014.8 0.0
28/01:30am 11.6 8.6 5.9 68 2.7 N 11 13 6 7 1015.3 1015.1 0.0
28/01:00am 10.6 7.6 5.8 72 2.2 NNW 11 11 6 6 1015.5 1015.3 0.0
28/12:30am 11.1 8.4 5.8 70 2.5 NNW 9 11 5 6 1015.8 1015.6 0.0
28/12:00am 11.6 9.0 6.1 69 2.6 NNW 9 11 5 6 1016.0 1015.8 0.0
 
Date/Time
EST
Temp
°C
App
Temp
°C
Dew
Point
°C
Rel
Hum
%
Delta-T
°C
Wind Press
QNH
hPa
Press
MSL
hPa
Rain since
9am
mm
Dir  Spd
km/h
Gust
km/h
Spd
kts
Gust
kts
27/11:30pm 11.9 9.2 5.8 66 2.9 NNW 9 9 5 5 1016.4 1016.1 0.0
27/11:00pm 12.7 10.1 6.3 65 3.1 N 9 9 5 5 1016.4 1016.1 0.0
27/10:30pm 12.2 9.6 6.0 66 3.0 NNE 9 11 5 6 1016.6 1016.3 0.0
27/10:00pm 12.7 10.0 5.8 63 3.3 N 9 9 5 5 1016.6 1016.3 0.0
27/09:30pm 13.4 10.8 6.3 62 3.4 N 9 9 5 5 1016.8 1016.5 0.0
27/09:00pm 13.3 11.1 6.4 63 3.3 NE 7 9 4 5 1016.7 1016.4 0.0
27/08:30pm 13.5 11.4 6.6 63 3.4 ENE 7 9 4 5 1016.7 1016.4 0.0
27/08:00pm 14.1 13.3 6.5 60 3.7 CALM 0 0 0 0 1016.8 1016.5 0.0
27/07:30pm 14.4 13.6 6.5 59 3.9 CALM 0 0 0 0 1016.7 1016.4 0.0
27/07:00pm 14.5 13.6 6.1 57 4.1 CALM 0 0 0 0 1016.7 1016.4 0.0
27/06:30pm 16.2 14.2 6.3 52 4.9 W 6 6 3 3 1016.6 1016.3 0.0
27/06:00pm 16.9 14.7 6.1 49 5.3 WNW 7 9 4 5 1016.5 1016.2 0.0
27/05:30pm 17.5 15.3 5.4 45 5.9 N 6 7 3 4 1016.1 1015.9 0.0
27/05:00pm 19.2 16.4 5.3 40 6.9 N 9 11 5 6 1016.1 1015.9 0.0
27/04:30pm 20.2 17.4 5.1 37 7.5 N 9 13 5 7 1016.1 1015.9 0.0
27/04:00pm 20.8 18.0 5.2 36 7.8 NE 9 13 5 7 1016.0 1015.8 0.0
27/03:30pm 21.0 18.2 5.0 35 8.0 N 9 17 5 9 1016.2 1016.0 0.0
27/03:00pm 20.9 18.1 5.3 36 7.8 W 9 15 5 8 1016.4 1016.1 0.0
27/02:30pm 20.8 18.1 5.6 37 7.6 W 9 20 5 11 1016.6 1016.3 0.0
27/02:00pm 20.9 18.6 5.7 37 7.7 WNW 7 11 4 6 1017.0 1016.7 0.0
27/01:30pm 20.0 17.1 6.7 42 6.8 WNW 11 17 6 9 1017.6 1017.3 0.0
27/01:00pm 20.0 17.7 7.4 44 6.5 N 9 15 5 8 1018.0 1017.7 0.0
27/12:30pm 19.2 16.9 7.6 47 6.0 NNW 9 15 5 8 1018.7 1018.5 0.0
27/12:00pm 18.7 16.5 7.8 49 5.6 NNW 9 19 5 10 1019.2 1019.0 0.0
27/11:30am 17.9 15.3 7.6 51 5.3 N 11 17 6 9 1019.7 1019.5 0.0
27/11:00am 17.5 15.0 8.1 54 4.8 N 11 15 6 8 1020.2 1020.0 0.0
27/10:30am 16.7 14.3 8.7 59 4.2 NE 11 15 6 8 1020.5 1020.2 0.0
27/10:00am 15.6 13.3 9.1 65 3.4 ENE 11 15 6 8 1020.6 1020.3 0.0
27/09:30am 14.1 11.4 8.9 71 2.7 ENE 13 17 7 9 1020.7 1020.4 0.0
27/09:00am 13.0 10.4 9.4 79 1.8 ENE 13 19 7 10 1020.6 1020.3 0.2
27/08:30am 11.3 9.4 9.2 87 1.1 E 9 13 5 7 1020.6 1020.3 0.2
27/08:00am 9.4 7.3 8.3 93 0.5 E 9 11 5 6 1020.5 1020.2 0.2
27/07:30am 7.6 4.8 7.0 96 0.3 E 11 13 6 7 1020.2 1020.0 0.2
27/07:00am 6.8 3.8 6.2 96 0.3 ESE 11 11 6 6 1020.1 1019.9 0.2
27/06:30am 6.9 3.9 6.2 95 0.3 ESE 11 11 6 6 1019.9 1019.7 0.2
27/06:00am 7.1 4.6 6.4 95 0.3 ESE 9 11 5 6 1019.8 1019.6 0.2
27/05:30am 7.6 5.1 6.7 94 0.4 E 9 11 5 6 1019.8 1019.6 0.2
27/05:00am 7.8 5.3 6.7 93 0.5 E 9 13 5 7 1019.7 1019.5 0.2
27/04:30am 7.8 4.9 6.7 93 0.5 E 11 13 6 7 1019.9 1019.7 0.2
27/04:00am 8.2 5.4 7.0 92 0.6 E 11 13 6 7 1020.1 1019.9 0.2
27/03:30am 8.3 5.5 6.9 91 0.7 E 11 13 6 7 1020.2 1020.0 0.2
27/03:00am 8.7 6.3 7.0 89 0.8 E 9 11 5 6 1020.6 1020.3 0.2
27/02:30am 8.9 6.2 7.2 89 0.8 E 11 13 6 7 1020.7 1020.4 0.2
27/02:00am 9.0 5.9 7.3 89 0.8 E 13 13 7 7 1020.9 1020.6 0.2
27/01:30am 8.5 6.0 6.6 88 0.9 E 9 11 5 6 1021.1 1020.8 0.2
27/01:00am 8.9 6.1 6.9 87 0.9 E 11 11 6 6 1021.2 1020.9 0.2
27/12:30am 9.1 6.3 6.9 86 1.0 E 11 11 6 6 1021.3 1021.0 0.2
27/12:00am 9.4 6.6 6.8 84 1.2 E 11 11 6 6 1021.4 1021.1 0.2
 
Date/Time
EST
Temp
°C
App
Temp
°C
Dew
Point
°C
Rel
Hum
%
Delta-T
°C
Wind Press
QNH
hPa
Press
MSL
hPa
Rain since
9am
mm
Dir  Spd
km/h
Gust
km/h
Spd
kts
Gust
kts
26/11:30pm 9.6 6.8 6.9 83 1.3 E 11 13 6 7 1021.3 1021.0 0.2

Other Formats:

Comma delimited format used in spreadsheet applications
http://www.bom.gov.au/fwo/IDN60801/IDN60801.94711.axf

JavaScript Object Notation format (JSON) in row-major order
http://www.bom.gov.au/fwo/IDN60801/IDN60801.94711.json